sensor_id;sensor_type;location;lat;lon;timestamp;P1;durP1;ratioP1;P2;durP2;ratioP2
53927;SDS011;39837;47.630;18.822;2024-01-11T00:02:35;63.05;;;32.85;;
53927;SDS011;39837;47.630;18.822;2024-01-11T00:05:19;59.97;;;32.85;;
53927;SDS011;39837;47.630;18.822;2024-01-11T00:08:03;61.97;;;33.35;;
53927;SDS011;39837;47.630;18.822;2024-01-11T00:10:48;59.58;;;33.60;;
53927;SDS011;39837;47.630;18.822;2024-01-11T00:13:31;68.97;;;34.85;;
53927;SDS011;39837;47.630;18.822;2024-01-11T00:16:16;67.88;;;33.22;;
53927;SDS011;39837;47.630;18.822;2024-01-11T00:19:00;63.45;;;32.25;;
53927;SDS011;39837;47.630;18.822;2024-01-11T00:21:44;57.30;;;29.80;;
53927;SDS011;39837;47.630;18.822;2024-01-11T00:24:28;69.65;;;31.17;;
53927;SDS011;39837;47.630;18.822;2024-01-11T00:27:12;61.50;;;31.08;;
53927;SDS011;39837;47.630;18.822;2024-01-11T00:29:57;68.18;;;31.23;;
53927;SDS011;39837;47.630;18.822;2024-01-11T00:32:41;62.83;;;33.50;;
53927;SDS011;39837;47.630;18.822;2024-01-11T00:35:24;66.45;;;34.50;;
53927;SDS011;39837;47.630;18.822;2024-01-11T00:38:08;57.13;;;32.45;;
53927;SDS011;39837;47.630;18.822;2024-01-11T00:40:53;80.32;;;33.03;;
53927;SDS011;39837;47.630;18.822;2024-01-11T00:43:37;67.93;;;32.97;;
53927;SDS011;39837;47.630;18.822;2024-01-11T00:46:21;66.28;;;35.20;;
53927;SDS011;39837;47.630;18.822;2024-01-11T00:49:05;76.97;;;32.88;;
53927;SDS011;39837;47.630;18.822;2024-01-11T00:51:49;61.35;;;31.83;;
53927;SDS011;39837;47.630;18.822;2024-01-11T00:54:33;64.22;;;33.05;;
53927;SDS011;39837;47.630;18.822;2024-01-11T00:57:17;76.28;;;32.72;;
53927;SDS011;39837;47.630;18.822;2024-01-11T01:00:01;62.03;;;33.88;;
53927;SDS011;39837;47.630;18.822;2024-01-11T01:02:46;56.08;;;29.63;;
53927;SDS011;39837;47.630;18.822;2024-01-11T01:05:30;64.43;;;32.42;;
53927;SDS011;39837;47.630;18.822;2024-01-11T01:08:14;73.78;;;31.23;;
53927;SDS011;39837;47.630;18.822;2024-01-11T01:10:58;67.78;;;33.17;;
53927;SDS011;39837;47.630;18.822;2024-01-11T01:13:42;56.20;;;29.90;;
53927;SDS011;39837;47.630;18.822;2024-01-11T01:16:26;63.75;;;31.15;;
53927;SDS011;39837;47.630;18.822;2024-01-11T01:19:10;59.33;;;28.73;;
53927;SDS011;39837;47.630;18.822;2024-01-11T01:21:54;59.08;;;30.33;;
53927;SDS011;39837;47.630;18.822;2024-01-11T01:24:38;51.45;;;28.17;;
53927;SDS011;39837;47.630;18.822;2024-01-11T01:27:22;61.22;;;31.08;;
53927;SDS011;39837;47.630;18.822;2024-01-11T01:30:06;55.97;;;28.48;;
53927;SDS011;39837;47.630;18.822;2024-01-11T01:32:52;63.97;;;31.27;;
53927;SDS011;39837;47.630;18.822;2024-01-11T01:35:36;63.75;;;31.02;;
53927;SDS011;39837;47.630;18.822;2024-01-11T01:38:20;67.93;;;30.52;;
53927;SDS011;39837;47.630;18.822;2024-01-11T01:41:05;57.38;;;29.73;;
53927;SDS011;39837;47.630;18.822;2024-01-11T01:43:49;52.67;;;27.58;;
53927;SDS011;39837;47.630;18.822;2024-01-11T01:46:32;67.00;;;30.83;;
53927;SDS011;39837;47.630;18.822;2024-01-11T01:49:17;51.40;;;27.33;;
53927;SDS011;39837;47.630;18.822;2024-01-11T01:52:06;52.58;;;28.10;;
53927;SDS011;39837;47.630;18.822;2024-01-11T01:54:51;57.25;;;27.17;;
53927;SDS011;39837;47.630;18.822;2024-01-11T01:57:35;58.90;;;29.48;;
53927;SDS011;39837;47.630;18.822;2024-01-11T02:00:20;67.83;;;34.23;;
53927;SDS011;39837;47.630;18.822;2024-01-11T02:03:04;72.40;;;37.22;;
53927;SDS011;39837;47.630;18.822;2024-01-11T02:05:48;52.08;;;30.15;;
53927;SDS011;39837;47.630;18.822;2024-01-11T02:08:32;52.55;;;29.65;;
53927;SDS011;39837;47.630;18.822;2024-01-11T02:11:17;72.22;;;36.85;;
53927;SDS011;39837;47.630;18.822;2024-01-11T02:14:01;62.17;;;35.80;;
53927;SDS011;39837;47.630;18.822;2024-01-11T02:16:46;62.75;;;34.80;;
53927;SDS011;39837;47.630;18.822;2024-01-11T02:19:33;78.05;;;39.78;;
53927;SDS011;39837;47.630;18.822;2024-01-11T02:22:21;73.75;;;36.90;;
53927;SDS011;39837;47.630;18.822;2024-01-11T02:25:06;71.97;;;38.15;;
53927;SDS011;39837;47.630;18.822;2024-01-11T02:27:50;67.35;;;34.55;;
53927;SDS011;39837;47.630;18.822;2024-01-11T02:30:35;62.92;;;32.03;;
53927;SDS011;39837;47.630;18.822;2024-01-11T02:33:18;60.03;;;31.52;;
53927;SDS011;39837;47.630;18.822;2024-01-11T02:36:02;73.97;;;36.00;;
53927;SDS011;39837;47.630;18.822;2024-01-11T02:38:47;56.28;;;31.48;;
53927;SDS011;39837;47.630;18.822;2024-01-11T02:41:32;59.75;;;31.60;;
53927;SDS011;39837;47.630;18.822;2024-01-11T02:44:16;62.42;;;30.23;;
53927;SDS011;39837;47.630;18.822;2024-01-11T02:47:00;60.25;;;29.35;;
53927;SDS011;39837;47.630;18.822;2024-01-11T02:49:44;58.63;;;30.63;;
53927;SDS011;39837;47.630;18.822;2024-01-11T02:52:28;65.10;;;32.55;;
53927;SDS011;39837;47.630;18.822;2024-01-11T02:55:12;70.55;;;31.00;;
53927;SDS011;39837;47.630;18.822;2024-01-11T02:57:57;59.25;;;30.95;;
53927;SDS011;39837;47.630;18.822;2024-01-11T03:00:41;57.50;;;29.05;;
53927;SDS011;39837;47.630;18.822;2024-01-11T03:03:25;67.10;;;30.55;;
53927;SDS011;39837;47.630;18.822;2024-01-11T03:06:09;57.58;;;30.30;;
53927;SDS011;39837;47.630;18.822;2024-01-11T03:08:54;57.50;;;27.02;;
53927;SDS011;39837;47.630;18.822;2024-01-11T03:11:39;54.60;;;27.98;;
53927;SDS011;39837;47.630;18.822;2024-01-11T03:14:22;59.10;;;29.08;;
53927;SDS011;39837;47.630;18.822;2024-01-11T03:17:07;52.93;;;28.00;;
53927;SDS011;39837;47.630;18.822;2024-01-11T03:19:51;55.93;;;27.43;;
53927;SDS011;39837;47.630;18.822;2024-01-11T03:22:35;51.17;;;27.80;;
53927;SDS011;39837;47.630;18.822;2024-01-11T03:25:19;55.50;;;27.17;;
53927;SDS011;39837;47.630;18.822;2024-01-11T03:28:03;50.88;;;27.83;;
53927;SDS011;39837;47.630;18.822;2024-01-11T03:30:48;59.55;;;28.77;;
53927;SDS011;39837;47.630;18.822;2024-01-11T03:33:32;56.13;;;29.42;;
53927;SDS011;39837;47.630;18.822;2024-01-11T03:36:16;55.47;;;28.35;;
53927;SDS011;39837;47.630;18.822;2024-01-11T03:39:00;52.95;;;29.00;;
53927;SDS011;39837;47.630;18.822;2024-01-11T03:41:44;50.28;;;28.42;;
53927;SDS011;39837;47.630;18.822;2024-01-11T03:44:28;60.45;;;28.48;;
53927;SDS011;39837;47.630;18.822;2024-01-11T03:49:58;53.77;;;27.40;;
53927;SDS011;39837;47.630;18.822;2024-01-11T03:52:42;53.70;;;27.70;;
53927;SDS011;39837;47.630;18.822;2024-01-11T03:55:26;51.72;;;25.92;;
53927;SDS011;39837;47.630;18.822;2024-01-11T03:58:10;57.25;;;26.98;;
53927;SDS011;39837;47.630;18.822;2024-01-11T04:00:54;68.65;;;28.17;;
53927;SDS011;39837;47.630;18.822;2024-01-11T04:03:38;58.27;;;28.40;;
53927;SDS011;39837;47.630;18.822;2024-01-11T04:06:22;58.17;;;27.30;;
53927;SDS011;39837;47.630;18.822;2024-01-11T04:09:07;53.65;;;27.20;;
53927;SDS011;39837;47.630;18.822;2024-01-11T04:11:52;52.08;;;27.15;;
53927;SDS011;39837;47.630;18.822;2024-01-11T04:14:39;46.97;;;27.25;;
53927;SDS011;39837;47.630;18.822;2024-01-11T04:17:23;58.97;;;28.75;;
53927;SDS011;39837;47.630;18.822;2024-01-11T04:20:07;45.60;;;26.23;;
53927;SDS011;39837;47.630;18.822;2024-01-11T04:22:52;56.40;;;27.15;;
53927;SDS011;39837;47.630;18.822;2024-01-11T04:25:36;49.83;;;28.33;;
53927;SDS011;39837;47.630;18.822;2024-01-11T04:28:20;54.35;;;28.25;;
53927;SDS011;39837;47.630;18.822;2024-01-11T04:31:04;58.50;;;28.50;;
53927;SDS011;39837;47.630;18.822;2024-01-11T04:33:48;52.10;;;28.52;;
53927;SDS011;39837;47.630;18.822;2024-01-11T04:36:32;56.77;;;28.70;;
53927;SDS011;39837;47.630;18.822;2024-01-11T04:39:16;50.28;;;25.73;;
53927;SDS011;39837;47.630;18.822;2024-01-11T04:42:01;48.85;;;25.67;;
53927;SDS011;39837;47.630;18.822;2024-01-11T04:44:45;53.10;;;26.38;;
53927;SDS011;39837;47.630;18.822;2024-01-11T04:47:29;55.83;;;25.90;;
53927;SDS011;39837;47.630;18.822;2024-01-11T04:50:13;48.88;;;26.05;;
53927;SDS011;39837;47.630;18.822;2024-01-11T04:52:57;51.70;;;27.25;;
53927;SDS011;39837;47.630;18.822;2024-01-11T04:55:41;51.83;;;26.00;;
53927;SDS011;39837;47.630;18.822;2024-01-11T04:58:25;42.10;;;23.77;;
53927;SDS011;39837;47.630;18.822;2024-01-11T05:01:16;49.07;;;25.40;;
53927;SDS011;39837;47.630;18.822;2024-01-11T05:04:01;50.10;;;27.07;;
53927;SDS011;39837;47.630;18.822;2024-01-11T05:06:45;72.03;;;30.70;;
53927;SDS011;39837;47.630;18.822;2024-01-11T05:09:29;174.13;;;60.13;;
53927;SDS011;39837;47.630;18.822;2024-01-11T05:12:13;562.97;;;278.63;;
53927;SDS011;39837;47.630;18.822;2024-01-11T05:14:57;521.30;;;238.90;;
53927;SDS011;39837;47.630;18.822;2024-01-11T05:17:41;480.60;;;218.83;;
53927;SDS011;39837;47.630;18.822;2024-01-11T05:20:26;486.73;;;223.37;;
53927;SDS011;39837;47.630;18.822;2024-01-11T05:23:10;490.80;;;241.68;;
53927;SDS011;39837;47.630;18.822;2024-01-11T05:25:55;484.93;;;224.43;;
53927;SDS011;39837;47.630;18.822;2024-01-11T05:28:39;490.70;;;233.85;;
53927;SDS011;39837;47.630;18.822;2024-01-11T05:31:23;494.73;;;243.40;;
53927;SDS011;39837;47.630;18.822;2024-01-11T05:34:07;451.35;;;206.10;;
53927;SDS011;39837;47.630;18.822;2024-01-11T05:36:52;432.35;;;197.30;;
53927;SDS011;39837;47.630;18.822;2024-01-11T05:39:36;439.00;;;218.55;;
53927;SDS011;39837;47.630;18.822;2024-01-11T05:42:20;441.17;;;206.93;;
53927;SDS011;39837;47.630;18.822;2024-01-11T05:45:04;427.02;;;196.82;;
53927;SDS011;39837;47.630;18.822;2024-01-11T05:47:50;415.65;;;177.75;;
53927;SDS011;39837;47.630;18.822;2024-01-11T05:50:34;405.83;;;181.47;;
53927;SDS011;39837;47.630;18.822;2024-01-11T05:53:18;386.52;;;171.80;;
53927;SDS011;39837;47.630;18.822;2024-01-11T05:58:54;320.73;;;132.45;;
53927;SDS011;39837;47.630;18.822;2024-01-11T06:01:41;328.00;;;142.77;;
53927;SDS011;39837;47.630;18.822;2024-01-11T06:04:28;295.50;;;129.07;;
53927;SDS011;39837;47.630;18.822;2024-01-11T06:07:14;255.43;;;109.10;;
53927;SDS011;39837;47.630;18.822;2024-01-11T06:09:58;198.87;;;85.77;;
53927;SDS011;39837;47.630;18.822;2024-01-11T06:12:42;171.20;;;77.83;;
53927;SDS011;39837;47.630;18.822;2024-01-11T06:15:27;192.75;;;83.50;;
53927;SDS011;39837;47.630;18.822;2024-01-11T06:18:11;216.20;;;87.37;;
53927;SDS011;39837;47.630;18.822;2024-01-11T06:20:55;202.57;;;86.32;;
53927;SDS011;39837;47.630;18.822;2024-01-11T06:23:39;160.93;;;71.83;;
53927;SDS011;39837;47.630;18.822;2024-01-11T06:26:23;166.90;;;73.23;;
53927;SDS011;39837;47.630;18.822;2024-01-11T06:29:07;172.10;;;69.10;;
53927;SDS011;39837;47.630;18.822;2024-01-11T06:31:51;150.97;;;69.03;;
53927;SDS011;39837;47.630;18.822;2024-01-11T06:34:35;144.40;;;64.20;;
53927;SDS011;39837;47.630;18.822;2024-01-11T06:37:20;148.57;;;64.63;;
53927;SDS011;39837;47.630;18.822;2024-01-11T06:40:05;141.23;;;60.77;;
53927;SDS011;39837;47.630;18.822;2024-01-11T06:42:51;146.23;;;64.93;;
53927;SDS011;39837;47.630;18.822;2024-01-11T06:45:35;133.10;;;60.50;;
53927;SDS011;39837;47.630;18.822;2024-01-11T06:48:19;127.72;;;58.15;;
53927;SDS011;39837;47.630;18.822;2024-01-11T06:51:03;98.13;;;48.37;;
53927;SDS011;39837;47.630;18.822;2024-01-11T06:53:47;106.13;;;47.33;;
53927;SDS011;39837;47.630;18.822;2024-01-11T06:56:32;109.88;;;48.63;;
53927;SDS011;39837;47.630;18.822;2024-01-11T06:59:16;106.43;;;49.85;;
53927;SDS011;39837;47.630;18.822;2024-01-11T07:02:00;109.88;;;48.35;;
53927;SDS011;39837;47.630;18.822;2024-01-11T07:04:44;100.60;;;45.85;;
53927;SDS011;39837;47.630;18.822;2024-01-11T07:07:29;105.43;;;48.65;;
53927;SDS011;39837;47.630;18.822;2024-01-11T07:10:12;104.20;;;50.65;;
53927;SDS011;39837;47.630;18.822;2024-01-11T07:12:56;127.93;;;57.50;;
53927;SDS011;39837;47.630;18.822;2024-01-11T07:15:40;140.68;;;58.90;;
53927;SDS011;39837;47.630;18.822;2024-01-11T07:18:25;130.43;;;67.68;;
53927;SDS011;39837;47.630;18.822;2024-01-11T07:21:09;138.70;;;68.55;;
53927;SDS011;39837;47.630;18.822;2024-01-11T07:23:53;128.98;;;57.65;;
53927;SDS011;39837;47.630;18.822;2024-01-11T07:26:37;123.20;;;63.28;;
53927;SDS011;39837;47.630;18.822;2024-01-11T07:29:22;125.60;;;60.30;;
53927;SDS011;39837;47.630;18.822;2024-01-11T07:32:06;109.72;;;56.40;;
53927;SDS011;39837;47.630;18.822;2024-01-11T07:34:50;105.07;;;54.00;;
53927;SDS011;39837;47.630;18.822;2024-01-11T07:37:34;93.00;;;50.50;;
53927;SDS011;39837;47.630;18.822;2024-01-11T07:40:18;102.10;;;58.10;;
53927;SDS011;39837;47.630;18.822;2024-01-11T07:43:02;114.40;;;57.17;;
53927;SDS011;39837;47.630;18.822;2024-01-11T07:45:47;96.20;;;52.70;;
53927;SDS011;39837;47.630;18.822;2024-01-11T07:48:31;102.38;;;54.28;;
53927;SDS011;39837;47.630;18.822;2024-01-11T07:51:16;98.05;;;53.65;;
53927;SDS011;39837;47.630;18.822;2024-01-11T07:54:00;99.57;;;53.00;;
53927;SDS011;39837;47.630;18.822;2024-01-11T07:56:47;89.35;;;50.35;;
53927;SDS011;39837;47.630;18.822;2024-01-11T07:59:34;101.40;;;53.25;;
53927;SDS011;39837;47.630;18.822;2024-01-11T08:02:19;100.65;;;52.42;;
53927;SDS011;39837;47.630;18.822;2024-01-11T08:05:03;102.15;;;51.22;;
53927;SDS011;39837;47.630;18.822;2024-01-11T08:07:48;119.20;;;62.65;;
53927;SDS011;39837;47.630;18.822;2024-01-11T08:10:33;105.40;;;54.38;;
53927;SDS011;39837;47.630;18.822;2024-01-11T08:13:17;104.00;;;53.50;;
53927;SDS011;39837;47.630;18.822;2024-01-11T08:16:03;103.30;;;56.63;;
53927;SDS011;39837;47.630;18.822;2024-01-11T08:18:48;132.48;;;65.07;;
53927;SDS011;39837;47.630;18.822;2024-01-11T08:21:32;111.18;;;59.90;;
53927;SDS011;39837;47.630;18.822;2024-01-11T08:24:16;112.70;;;57.65;;
53927;SDS011;39837;47.630;18.822;2024-01-11T08:27:01;112.97;;;57.35;;
53927;SDS011;39837;47.630;18.822;2024-01-11T08:29:46;98.90;;;53.00;;
53927;SDS011;39837;47.630;18.822;2024-01-11T08:32:30;97.65;;;54.72;;
53927;SDS011;39837;47.630;18.822;2024-01-11T08:35:14;108.13;;;55.85;;
53927;SDS011;39837;47.630;18.822;2024-01-11T08:38:00;98.20;;;52.35;;
53927;SDS011;39837;47.630;18.822;2024-01-11T08:40:45;99.65;;;51.15;;
53927;SDS011;39837;47.630;18.822;2024-01-11T08:43:29;104.57;;;53.45;;
53927;SDS011;39837;47.630;18.822;2024-01-11T08:46:22;93.80;;;51.67;;
53927;SDS011;39837;47.630;18.822;2024-01-11T08:49:07;87.55;;;47.38;;
53927;SDS011;39837;47.630;18.822;2024-01-11T08:51:52;105.40;;;45.50;;
53927;SDS011;39837;47.630;18.822;2024-01-11T08:54:35;83.72;;;42.90;;
53927;SDS011;39837;47.630;18.822;2024-01-11T08:57:19;85.07;;;40.90;;
53927;SDS011;39837;47.630;18.822;2024-01-11T09:00:04;79.97;;;43.45;;
53927;SDS011;39837;47.630;18.822;2024-01-11T09:05:33;71.53;;;37.38;;
53927;SDS011;39837;47.630;18.822;2024-01-11T09:08:17;75.25;;;39.03;;
53927;SDS011;39837;47.630;18.822;2024-01-11T09:11:01;74.90;;;35.08;;
53927;SDS011;39837;47.630;18.822;2024-01-11T09:13:45;75.60;;;37.63;;
53927;SDS011;39837;47.630;18.822;2024-01-11T09:16:29;65.55;;;34.00;;
53927;SDS011;39837;47.630;18.822;2024-01-11T09:19:14;64.53;;;35.38;;
53927;SDS011;39837;47.630;18.822;2024-01-11T09:21:57;63.05;;;35.28;;
53927;SDS011;39837;47.630;18.822;2024-01-11T09:24:42;73.70;;;39.58;;
53927;SDS011;39837;47.630;18.822;2024-01-11T09:27:26;69.75;;;34.70;;
53927;SDS011;39837;47.630;18.822;2024-01-11T09:30:10;76.32;;;37.15;;
53927;SDS011;39837;47.630;18.822;2024-01-11T09:32:54;84.82;;;41.90;;
53927;SDS011;39837;47.630;18.822;2024-01-11T09:35:39;86.03;;;42.80;;
53927;SDS011;39837;47.630;18.822;2024-01-11T09:38:23;81.18;;;42.05;;
53927;SDS011;39837;47.630;18.822;2024-01-11T09:41:08;90.13;;;41.90;;
53927;SDS011;39837;47.630;18.822;2024-01-11T09:43:55;156.65;;;86.32;;
53927;SDS011;39837;47.630;18.822;2024-01-11T09:46:41;102.05;;;49.42;;
53927;SDS011;39837;47.630;18.822;2024-01-11T09:49:26;88.60;;;45.40;;
53927;SDS011;39837;47.630;18.822;2024-01-11T09:52:11;93.55;;;44.55;;
53927;SDS011;39837;47.630;18.822;2024-01-11T09:54:56;88.72;;;43.90;;
53927;SDS011;39837;47.630;18.822;2024-01-11T09:57:41;100.95;;;41.85;;
53927;SDS011;39837;47.630;18.822;2024-01-11T10:00:30;66.30;;;37.45;;
53927;SDS011;39837;47.630;18.822;2024-01-11T10:03:15;73.75;;;39.83;;
53927;SDS011;39837;47.630;18.822;2024-01-11T10:05:59;71.70;;;38.38;;
53927;SDS011;39837;47.630;18.822;2024-01-11T10:08:45;72.63;;;37.22;;
53927;SDS011;39837;47.630;18.822;2024-01-11T10:11:30;71.35;;;35.63;;
53927;SDS011;39837;47.630;18.822;2024-01-11T10:14:14;71.13;;;35.42;;
53927;SDS011;39837;47.630;18.822;2024-01-11T10:16:58;73.43;;;37.00;;
53927;SDS011;39837;47.630;18.822;2024-01-11T10:19:42;70.90;;;34.92;;
53927;SDS011;39837;47.630;18.822;2024-01-11T10:22:26;65.78;;;35.08;;
53927;SDS011;39837;47.630;18.822;2024-01-11T10:25:11;66.82;;;35.28;;
53927;SDS011;39837;47.630;18.822;2024-01-11T10:27:56;60.63;;;35.53;;
53927;SDS011;39837;47.630;18.822;2024-01-11T10:30:41;62.85;;;34.13;;
53927;SDS011;39837;47.630;18.822;2024-01-11T10:33:29;64.32;;;35.67;;
53927;SDS011;39837;47.630;18.822;2024-01-11T10:36:13;65.85;;;34.67;;
53927;SDS011;39837;47.630;18.822;2024-01-11T10:38:58;63.03;;;34.28;;
53927;SDS011;39837;47.630;18.822;2024-01-11T10:41:50;61.85;;;33.53;;
53927;SDS011;39837;47.630;18.822;2024-01-11T10:44:35;65.18;;;36.47;;
53927;SDS011;39837;47.630;18.822;2024-01-11T10:47:24;70.55;;;38.85;;
53927;SDS011;39837;47.630;18.822;2024-01-11T10:50:10;71.65;;;38.63;;
53927;SDS011;39837;47.630;18.822;2024-01-11T10:56:09;77.55;;;38.97;;
53927;SDS011;39837;47.630;18.822;2024-01-11T10:58:55;66.90;;;37.72;;
53927;SDS011;39837;47.630;18.822;2024-01-11T11:01:40;71.07;;;38.42;;
53927;SDS011;39837;47.630;18.822;2024-01-11T11:04:25;70.78;;;37.08;;
53927;SDS011;39837;47.630;18.822;2024-01-11T11:07:09;68.20;;;37.65;;
53927;SDS011;39837;47.630;18.822;2024-01-11T11:09:53;62.72;;;35.88;;
53927;SDS011;39837;47.630;18.822;2024-01-11T11:12:39;74.75;;;36.97;;
53927;SDS011;39837;47.630;18.822;2024-01-11T11:15:24;61.22;;;35.15;;
53927;SDS011;39837;47.630;18.822;2024-01-11T11:18:14;59.85;;;34.80;;
53927;SDS011;39837;47.630;18.822;2024-01-11T11:20:58;68.35;;;35.72;;
53927;SDS011;39837;47.630;18.822;2024-01-11T11:23:42;62.40;;;35.75;;
53927;SDS011;39837;47.630;18.822;2024-01-11T11:26:27;69.50;;;37.75;;
53927;SDS011;39837;47.630;18.822;2024-01-11T11:29:12;85.97;;;52.17;;
53927;SDS011;39837;47.630;18.822;2024-01-11T11:31:58;143.18;;;78.53;;
53927;SDS011;39837;47.630;18.822;2024-01-11T11:34:43;70.38;;;38.50;;
53927;SDS011;39837;47.630;18.822;2024-01-11T11:37:30;60.10;;;33.95;;
53927;SDS011;39837;47.630;18.822;2024-01-11T11:40:17;59.90;;;31.80;;
53927;SDS011;39837;47.630;18.822;2024-01-11T11:43:02;48.65;;;29.65;;
53927;SDS011;39837;47.630;18.822;2024-01-11T11:45:49;55.60;;;31.10;;
53927;SDS011;39837;47.630;18.822;2024-01-11T11:51:19;60.97;;;32.90;;
53927;SDS011;39837;47.630;18.822;2024-01-11T11:54:04;60.53;;;31.60;;
53927;SDS011;39837;47.630;18.822;2024-01-11T11:56:48;58.50;;;35.33;;
53927;SDS011;39837;47.630;18.822;2024-01-11T11:59:31;66.35;;;34.05;;
53927;SDS011;39837;47.630;18.822;2024-01-11T12:02:17;56.88;;;33.17;;
53927;SDS011;39837;47.630;18.822;2024-01-11T12:05:01;56.50;;;30.65;;
53927;SDS011;39837;47.630;18.822;2024-01-11T12:07:47;70.28;;;36.05;;
53927;SDS011;39837;47.630;18.822;2024-01-11T12:10:31;56.50;;;28.83;;
53927;SDS011;39837;47.630;18.822;2024-01-11T12:13:15;50.45;;;30.75;;
53927;SDS011;39837;47.630;18.822;2024-01-11T12:15:59;101.10;;;49.72;;
53927;SDS011;39837;47.630;18.822;2024-01-11T12:18:43;96.38;;;41.65;;
53927;SDS011;39837;47.630;18.822;2024-01-11T12:21:27;219.43;;;85.55;;
53927;SDS011;39837;47.630;18.822;2024-01-11T12:24:11;158.00;;;68.25;;
53927;SDS011;39837;47.630;18.822;2024-01-11T12:26:56;155.82;;;64.75;;
53927;SDS011;39837;47.630;18.822;2024-01-11T12:29:41;143.82;;;66.43;;
53927;SDS011;39837;47.630;18.822;2024-01-11T12:32:26;84.35;;;40.28;;
53927;SDS011;39837;47.630;18.822;2024-01-11T12:35:10;81.30;;;42.50;;
53927;SDS011;39837;47.630;18.822;2024-01-11T12:37:54;75.47;;;35.10;;
53927;SDS011;39837;47.630;18.822;2024-01-11T12:40:45;59.17;;;31.67;;
53927;SDS011;39837;47.630;18.822;2024-01-11T12:43:29;68.18;;;32.75;;
53927;SDS011;39837;47.630;18.822;2024-01-11T12:46:14;53.42;;;29.05;;
53927;SDS011;39837;47.630;18.822;2024-01-11T12:48:58;44.33;;;25.23;;
53927;SDS011;39837;47.630;18.822;2024-01-11T12:51:42;40.95;;;26.80;;
53927;SDS011;39837;47.630;18.822;2024-01-11T12:54:26;50.05;;;27.63;;
53927;SDS011;39837;47.630;18.822;2024-01-11T12:57:12;48.83;;;25.83;;
53927;SDS011;39837;47.630;18.822;2024-01-11T13:00:08;43.15;;;24.42;;
53927;SDS011;39837;47.630;18.822;2024-01-11T13:02:54;52.88;;;24.20;;
53927;SDS011;39837;47.630;18.822;2024-01-11T13:05:39;48.92;;;23.55;;
53927;SDS011;39837;47.630;18.822;2024-01-11T13:08:23;37.42;;;21.27;;
53927;SDS011;39837;47.630;18.822;2024-01-11T13:11:07;35.35;;;23.30;;
53927;SDS011;39837;47.630;18.822;2024-01-11T13:13:51;38.55;;;22.98;;
53927;SDS011;39837;47.630;18.822;2024-01-11T13:16:35;42.17;;;24.67;;
53927;SDS011;39837;47.630;18.822;2024-01-11T13:19:19;38.85;;;23.45;;
53927;SDS011;39837;47.630;18.822;2024-01-11T13:22:03;45.50;;;22.58;;
53927;SDS011;39837;47.630;18.822;2024-01-11T13:24:47;44.83;;;23.17;;
53927;SDS011;39837;47.630;18.822;2024-01-11T13:27:32;43.55;;;24.05;;
53927;SDS011;39837;47.630;18.822;2024-01-11T13:30:16;45.88;;;25.40;;
53927;SDS011;39837;47.630;18.822;2024-01-11T13:33:00;37.60;;;21.45;;
53927;SDS011;39837;47.630;18.822;2024-01-11T13:35:45;34.72;;;20.38;;
53927;SDS011;39837;47.630;18.822;2024-01-11T13:38:29;49.03;;;24.20;;
53927;SDS011;39837;47.630;18.822;2024-01-11T13:41:13;53.03;;;24.60;;
53927;SDS011;39837;47.630;18.822;2024-01-11T13:43:57;54.95;;;27.58;;
53927;SDS011;39837;47.630;18.822;2024-01-11T13:46:41;52.53;;;27.98;;
53927;SDS011;39837;47.630;18.822;2024-01-11T13:49:27;47.55;;;25.50;;
53927;SDS011;39837;47.630;18.822;2024-01-11T13:52:11;49.38;;;26.55;;
53927;SDS011;39837;47.630;18.822;2024-01-11T13:54:55;49.35;;;25.33;;
53927;SDS011;39837;47.630;18.822;2024-01-11T13:57:39;46.80;;;26.20;;
53927;SDS011;39837;47.630;18.822;2024-01-11T14:00:25;55.97;;;31.63;;
53927;SDS011;39837;47.630;18.822;2024-01-11T14:03:09;63.08;;;33.72;;
53927;SDS011;39837;47.630;18.822;2024-01-11T14:05:54;78.47;;;42.35;;
53927;SDS011;39837;47.630;18.822;2024-01-11T14:08:38;51.97;;;25.80;;
53927;SDS011;39837;47.630;18.822;2024-01-11T14:11:22;187.93;;;69.35;;
53927;SDS011;39837;47.630;18.822;2024-01-11T14:14:06;161.13;;;62.42;;
53927;SDS011;39837;47.630;18.822;2024-01-11T14:16:50;288.08;;;110.32;;
53927;SDS011;39837;47.630;18.822;2024-01-11T14:19:35;141.43;;;57.53;;
53927;SDS011;39837;47.630;18.822;2024-01-11T14:22:19;230.05;;;104.50;;
53927;SDS011;39837;47.630;18.822;2024-01-11T14:25:03;135.60;;;64.93;;
53927;SDS011;39837;47.630;18.822;2024-01-11T14:27:48;147.00;;;68.10;;
53927;SDS011;39837;47.630;18.822;2024-01-11T14:30:32;105.10;;;49.85;;
53927;SDS011;39837;47.630;18.822;2024-01-11T14:33:17;82.18;;;43.95;;
53927;SDS011;39837;47.630;18.822;2024-01-11T14:36:02;89.38;;;45.08;;
53927;SDS011;39837;47.630;18.822;2024-01-11T14:38:47;61.40;;;33.67;;
53927;SDS011;39837;47.630;18.822;2024-01-11T14:41:31;66.72;;;37.70;;
53927;SDS011;39837;47.630;18.822;2024-01-11T14:44:15;75.57;;;33.67;;
53927;SDS011;39837;47.630;18.822;2024-01-11T14:46:59;48.15;;;27.38;;
53927;SDS011;39837;47.630;18.822;2024-01-11T14:49:43;54.25;;;27.98;;
53927;SDS011;39837;47.630;18.822;2024-01-11T14:52:27;46.20;;;27.10;;
53927;SDS011;39837;47.630;18.822;2024-01-11T14:55:11;43.92;;;25.67;;
53927;SDS011;39837;47.630;18.822;2024-01-11T14:57:55;51.33;;;29.58;;
53927;SDS011;39837;47.630;18.822;2024-01-11T15:00:39;57.83;;;32.33;;
53927;SDS011;39837;47.630;18.822;2024-01-11T15:03:24;40.78;;;22.25;;
53927;SDS011;39837;47.630;18.822;2024-01-11T15:06:08;44.38;;;24.95;;
53927;SDS011;39837;47.630;18.822;2024-01-11T15:08:53;79.70;;;36.88;;
53927;SDS011;39837;47.630;18.822;2024-01-11T15:11:37;77.50;;;37.90;;
53927;SDS011;39837;47.630;18.822;2024-01-11T15:14:21;63.83;;;33.25;;
53927;SDS011;39837;47.630;18.822;2024-01-11T15:17:05;47.60;;;25.70;;
53927;SDS011;39837;47.630;18.822;2024-01-11T15:19:49;61.40;;;33.53;;
53927;SDS011;39837;47.630;18.822;2024-01-11T15:22:34;67.05;;;32.20;;
53927;SDS011;39837;47.630;18.822;2024-01-11T15:25:18;83.47;;;40.80;;
53927;SDS011;39837;47.630;18.822;2024-01-11T15:28:01;66.05;;;36.83;;
53927;SDS011;39837;47.630;18.822;2024-01-11T15:30:45;59.58;;;32.15;;
53927;SDS011;39837;47.630;18.822;2024-01-11T15:33:30;61.78;;;34.58;;
53927;SDS011;39837;47.630;18.822;2024-01-11T15:36:15;62.80;;;34.03;;
53927;SDS011;39837;47.630;18.822;2024-01-11T15:38:59;61.40;;;34.60;;
53927;SDS011;39837;47.630;18.822;2024-01-11T15:41:45;65.20;;;33.42;;
53927;SDS011;39837;47.630;18.822;2024-01-11T15:44:30;65.18;;;35.78;;
53927;SDS011;39837;47.630;18.822;2024-01-11T15:47:17;83.70;;;36.80;;
53927;SDS011;39837;47.630;18.822;2024-01-11T15:50:02;66.45;;;35.67;;
53927;SDS011;39837;47.630;18.822;2024-01-11T15:52:54;60.47;;;34.13;;
53927;SDS011;39837;47.630;18.822;2024-01-11T15:55:38;61.88;;;34.05;;
53927;SDS011;39837;47.630;18.822;2024-01-11T15:58:22;75.32;;;37.13;;
53927;SDS011;39837;47.630;18.822;2024-01-11T16:01:06;77.00;;;36.78;;